createdAt,value
2022-12-05T00:02:09.392Z,8.60
2022-12-05T00:04:38.012Z,9.07
2022-12-05T00:07:06.503Z,8.10
2022-12-05T00:09:34.914Z,7.97
2022-12-05T00:12:03.333Z,8.97
2022-12-05T00:14:31.756Z,8.17
2022-12-05T00:17:00.238Z,8.43
2022-12-05T00:19:30.139Z,7.33
2022-12-05T00:21:58.793Z,8.27
2022-12-05T00:24:27.261Z,9.00
2022-12-05T00:26:55.695Z,8.17
2022-12-05T00:29:24.157Z,8.13
2022-12-05T00:31:52.627Z,8.17
2022-12-05T00:34:21.045Z,8.00
2022-12-05T00:36:50.861Z,8.17
2022-12-05T00:39:19.365Z,9.37
2022-12-05T00:41:47.803Z,9.63
2022-12-05T00:44:16.269Z,10.17
2022-12-05T00:46:44.679Z,8.73
2022-12-05T00:49:13.807Z,8.57
2022-12-05T00:51:43.717Z,9.20
2022-12-05T00:54:15.490Z,8.17
2022-12-05T00:56:44.419Z,8.27
2022-12-05T00:59:16.662Z,8.87
2022-12-05T01:01:46.141Z,8.20
2022-12-05T01:04:15.919Z,8.67
2022-12-05T01:06:44.865Z,8.50
2022-12-05T01:09:16.781Z,8.17
2022-12-05T01:11:45.773Z,9.67
2022-12-05T01:14:18.447Z,8.63
2022-12-05T01:16:49.053Z,8.77
2022-12-05T01:19:19.989Z,8.70
2022-12-05T01:21:48.701Z,8.70
2022-12-05T01:24:19.867Z,9.10
2022-12-05T01:26:48.684Z,8.73
2022-12-05T01:29:19.517Z,7.83
2022-12-05T01:31:48.219Z,7.97
2022-12-05T01:34:18.145Z,8.47
2022-12-05T01:36:47.261Z,6.67
2022-12-05T01:39:16.312Z,9.23
2022-12-05T01:41:47.773Z,13.23
2022-12-05T01:44:53.374Z,11.57
2022-12-05T01:47:23.597Z,11.70
2022-12-05T01:49:52.105Z,8.83
2022-12-05T01:52:22.566Z,10.47
2022-12-05T01:54:52.802Z,10.03
2022-12-05T01:57:23.697Z,10.87
2022-12-05T01:59:59.576Z,10.73
2022-12-05T02:02:28.976Z,9.40
2022-12-05T02:05:02.906Z,9.93
2022-12-05T02:07:31.890Z,9.73
2022-12-05T02:10:00.505Z,10.03
2022-12-05T02:12:30.412Z,9.97
2022-12-05T02:15:18.616Z,9.30
2022-12-05T02:17:56.430Z,8.20
2022-12-05T02:20:38.043Z,9.27
2022-12-05T02:23:31.879Z,7.50
2022-12-05T02:26:32.736Z,8.03
2022-12-05T02:29:30.278Z,8.47
2022-12-05T02:32:06.374Z,8.17
2022-12-05T02:34:39.841Z,6.93
2022-12-05T02:37:13.592Z,6.73
2022-12-05T02:39:46.748Z,7.47
2022-12-05T02:42:19.548Z,7.20
2022-12-05T02:44:50.782Z,7.13
2022-12-05T02:47:22.880Z,9.23
2022-12-05T02:49:52.289Z,9.27
2022-12-05T02:52:21.095Z,9.07
2022-12-05T02:54:50.874Z,8.67
2022-12-05T02:57:19.481Z,10.07
2022-12-05T02:59:47.997Z,8.50
2022-12-05T03:02:26.370Z,9.47
2022-12-05T03:04:55.308Z,9.73
2022-12-05T03:07:25.201Z,9.70
2022-12-05T03:09:59.454Z,9.57
2022-12-05T03:12:30.326Z,8.93
2022-12-05T03:15:02.627Z,8.67
2022-12-05T03:17:36.320Z,9.20
2022-12-05T03:20:07.852Z,9.30
2022-12-05T03:22:39.161Z,10.90
2022-12-05T03:25:08.412Z,9.50
2022-12-05T03:27:44.134Z,10.73
2022-12-05T03:30:15.577Z,10.47
2022-12-05T03:32:50.938Z,10.20
2022-12-05T03:35:23.528Z,12.13
2022-12-05T03:37:54.701Z,29.87
2022-12-05T03:40:28.913Z,31.10
2022-12-05T03:43:00.631Z,16.57
2022-12-05T03:45:33.658Z,13.23
2022-12-05T03:48:09.066Z,11.57
2022-12-05T03:50:39.990Z,11.10
2022-12-05T03:53:19.558Z,9.90
2022-12-05T03:55:52.429Z,10.83
2022-12-05T03:58:25.847Z,10.07
2022-12-05T04:00:55.900Z,9.67
2022-12-05T04:03:39.142Z,8.43
2022-12-05T04:06:13.129Z,7.60
2022-12-05T04:08:45.724Z,9.53
2022-12-05T04:11:17.742Z,8.17
2022-12-05T04:13:48.381Z,8.70
2022-12-05T04:16:37.852Z,8.40
2022-12-05T04:19:11.429Z,9.63
2022-12-05T04:21:43.558Z,8.93
2022-12-05T04:24:31.692Z,9.73
2022-12-05T04:27:07.840Z,9.73
2022-12-05T04:29:40.286Z,8.97
2022-12-05T04:32:10.508Z,9.30
2022-12-05T04:34:43.266Z,11.10
2022-12-05T04:37:14.570Z,9.67
2022-12-05T04:39:46.150Z,13.87
2022-12-05T04:42:17.462Z,13.03
2022-12-05T04:44:48.873Z,11.00
2022-12-05T04:47:19.654Z,9.03
2022-12-05T04:49:53.697Z,10.10
2022-12-05T04:52:23.293Z,9.37
2022-12-05T04:54:54.621Z,8.10
2022-12-05T04:57:25.742Z,8.47
2022-12-05T04:59:54.328Z,10.30
2022-12-05T05:02:27.804Z,8.33
2022-12-05T05:04:59.394Z,7.47
2022-12-05T05:07:27.902Z,8.40
2022-12-05T05:09:57.251Z,7.73
2022-12-05T05:12:25.966Z,7.97
2022-12-05T05:14:54.385Z,7.07
2022-12-05T05:17:22.855Z,8.03
2022-12-05T05:19:51.367Z,7.60
2022-12-05T05:22:21.123Z,7.50
2022-12-05T05:24:49.607Z,7.53
2022-12-05T05:27:18.014Z,6.73
2022-12-05T05:29:47.526Z,7.40
2022-12-05T05:32:15.975Z,6.80
2022-12-05T05:34:44.569Z,6.47
2022-12-05T05:37:13.105Z,7.57
2022-12-05T05:39:43.084Z,6.33
2022-12-05T05:42:11.503Z,6.00
2022-12-05T05:44:39.889Z,7.40
2022-12-05T05:47:08.348Z,6.67
2022-12-05T05:49:36.947Z,6.03
2022-12-05T05:52:05.731Z,6.80
2022-12-05T05:54:34.197Z,6.60
2022-12-05T05:57:03.983Z,5.87
2022-12-05T05:59:32.585Z,5.77
2022-12-05T06:02:01.024Z,5.10
2022-12-05T06:04:29.534Z,5.83
2022-12-05T06:06:57.918Z,5.60
2022-12-05T06:09:26.402Z,6.03
2022-12-05T06:11:54.847Z,6.67
2022-12-05T06:14:24.620Z,6.30
2022-12-05T06:16:53.013Z,5.83
2022-12-05T06:19:21.360Z,6.10
2022-12-05T06:21:50.858Z,5.97
2022-12-05T06:24:19.268Z,5.77
2022-12-05T06:26:47.706Z,6.03
2022-12-05T06:29:16.141Z,8.25
2022-12-05T06:31:45.954Z,7.97
2022-12-05T06:34:14.429Z,6.80
2022-12-05T06:36:42.857Z,8.83
2022-12-05T06:39:11.296Z,6.97
2022-12-05T06:41:39.728Z,6.10
2022-12-05T06:44:08.167Z,5.57
2022-12-05T06:46:36.706Z,4.87
2022-12-05T06:49:06.510Z,4.83
2022-12-05T06:51:34.995Z,5.47
2022-12-05T06:54:03.449Z,6.10
2022-12-05T06:56:31.970Z,7.37
2022-12-05T06:59:00.396Z,17.30
2022-12-05T07:01:40.991Z,5.03
2022-12-05T07:04:13.424Z,4.50
2022-12-05T07:06:49.967Z,5.53
2022-12-05T07:09:20.127Z,4.17
2022-12-05T07:11:49.345Z,4.70
2022-12-05T07:14:46.342Z,5.70
2022-12-05T07:17:06.802Z,4.73
2022-12-05T07:19:36.708Z,4.97
2022-12-05T07:22:07.405Z,5.10
2022-12-05T07:24:38.010Z,5.20
2022-12-05T07:27:07.492Z,5.70
2022-12-05T07:29:35.887Z,5.90
2022-12-05T07:32:04.374Z,5.63
2022-12-05T07:34:32.897Z,6.03
2022-12-05T07:37:02.997Z,6.63
2022-12-05T07:39:31.517Z,5.63
2022-12-05T07:41:59.936Z,5.87
2022-12-05T07:44:28.474Z,6.40
2022-12-05T07:46:56.881Z,7.30
2022-12-05T07:49:25.329Z,7.20
2022-12-05T07:51:53.961Z,7.67
2022-12-05T07:54:23.892Z,7.63
2022-12-05T07:56:52.321Z,7.80
2022-12-05T07:59:20.985Z,7.37
2022-12-05T08:01:49.502Z,7.13
2022-12-05T08:04:18.187Z,7.10
2022-12-05T08:06:46.822Z,8.87
2022-12-05T08:09:15.337Z,9.30
2022-12-05T08:11:51.026Z,9.20
2022-12-05T08:14:21.660Z,8.33
2022-12-05T08:16:50.279Z,10.10
2022-12-05T08:19:18.785Z,7.73
2022-12-05T08:21:47.365Z,8.33
2022-12-05T08:24:15.934Z,7.77
2022-12-05T08:26:45.737Z,9.13
2022-12-05T08:29:15.636Z,8.13
2022-12-05T08:31:47.105Z,8.23
2022-12-05T08:34:16.144Z,8.87
2022-12-05T08:36:44.900Z,8.47
2022-12-05T08:39:16.150Z,9.33
2022-12-05T08:41:46.799Z,9.10
2022-12-05T08:44:17.164Z,10.47
2022-12-05T08:46:47.122Z,11.33
2022-12-05T08:49:15.855Z,8.93
2022-12-05T08:51:44.746Z,9.50
2022-12-05T08:54:13.257Z,7.70
2022-12-05T08:56:41.818Z,9.13
2022-12-05T08:59:11.698Z,7.90
2022-12-05T09:01:40.584Z,7.77
2022-12-05T09:04:09.624Z,7.30
2022-12-05T09:06:39.358Z,8.07
2022-12-05T09:09:11.395Z,7.30
2022-12-05T09:11:46.032Z,9.30
2022-12-05T09:14:16.350Z,10.50
2022-12-05T09:16:46.474Z,12.03
2022-12-05T09:19:16.798Z,12.43
2022-12-05T09:21:46.350Z,14.53
2022-12-05T09:24:15.126Z,14.80
2022-12-05T09:26:43.884Z,14.47
2022-12-05T09:29:16.724Z,12.70
2022-12-05T09:31:49.882Z,13.00
2022-12-05T09:34:20.176Z,12.43
2022-12-05T09:36:55.678Z,12.80
2022-12-05T09:39:26.961Z,10.07
2022-12-05T09:42:10.733Z,10.90
2022-12-05T09:44:57.770Z,10.97
2022-12-05T09:47:36.622Z,9.87
2022-12-05T09:50:14.869Z,10.30
2022-12-05T09:52:54.868Z,11.43
2022-12-05T09:55:23.630Z,12.40
2022-12-05T09:57:54.145Z,11.73
2022-12-05T10:00:24.884Z,10.67
2022-12-05T10:03:01.098Z,10.20
2022-12-05T10:05:32.878Z,11.17
2022-12-05T10:08:06.834Z,9.90
2022-12-05T10:10:44.265Z,9.50
2022-12-05T10:13:24.172Z,9.17
2022-12-05T10:15:57.242Z,9.30
2022-12-05T10:18:38.560Z,14.93
2022-12-05T10:21:13.649Z,14.40
2022-12-05T10:24:03.578Z,15.07
2022-12-05T10:26:34.842Z,15.73
2022-12-05T10:29:13.288Z,14.53
2022-12-05T10:31:42.862Z,20.60
2022-12-05T10:34:18.545Z,17.93
2022-12-05T10:36:54.817Z,18.63
2022-12-05T10:39:23.390Z,19.77
2022-12-05T10:41:51.907Z,15.07
2022-12-05T10:44:20.373Z,19.37
2022-12-05T10:46:49.154Z,26.40
2022-12-05T10:49:19.476Z,18.03
2022-12-05T10:51:48.274Z,16.73
2022-12-05T10:54:19.822Z,12.90
2022-12-05T10:56:49.793Z,13.20
2022-12-05T10:59:21.702Z,22.03
2022-12-05T11:01:53.195Z,35.83
2022-12-05T11:04:27.134Z,18.03
2022-12-05T11:06:58.530Z,15.07
2022-12-05T11:09:28.659Z,11.83
2022-12-05T11:12:16.116Z,8.97
2022-12-05T11:14:57.285Z,9.83
2022-12-05T11:17:27.930Z,9.40
2022-12-05T11:19:57.782Z,11.03
2022-12-05T11:22:33.774Z,10.43
2022-12-05T11:25:02.573Z,18.33
2022-12-05T11:27:32.734Z,14.77
2022-12-05T11:30:03.605Z,12.97
2022-12-05T11:32:34.356Z,11.70
2022-12-05T11:35:10.547Z,23.40
2022-12-05T11:37:45.337Z,17.73
2022-12-05T11:40:21.556Z,13.00
2022-12-05T11:43:13.646Z,12.13
2022-12-05T11:45:53.402Z,11.83
2022-12-05T11:48:49.686Z,13.10
2022-12-05T11:51:40.485Z,13.13
2022-12-05T11:55:03.983Z,10.93
2022-12-05T11:57:37.565Z,12.80
2022-12-05T12:00:13.600Z,13.50
2022-12-05T12:03:06.105Z,13.40
2022-12-05T12:05:38.328Z,13.87
2022-12-05T12:08:16.553Z,13.60
2022-12-05T12:10:50.689Z,14.07
2022-12-05T12:13:32.591Z,13.53
2022-12-05T12:16:11.520Z,11.77
2022-12-05T12:19:11.078Z,11.53
2022-12-05T12:22:00.870Z,10.37
2022-12-05T12:24:50.207Z,10.53
2022-12-05T12:27:30.447Z,9.53
2022-12-05T12:30:05.506Z,9.33
2022-12-05T12:32:39.854Z,9.47
2022-12-05T12:35:30.189Z,16.80
2022-12-05T12:38:24.005Z,21.97
2022-12-05T12:40:55.569Z,14.40
2022-12-05T12:43:53.782Z,13.43
2022-12-05T12:46:39.922Z,10.53
2022-12-05T12:49:28.084Z,12.53
2022-12-05T12:52:02.309Z,9.50
2022-12-05T12:57:46.805Z,9.10
2022-12-05T13:00:23.789Z,8.30
2022-12-05T13:02:56.249Z,7.50
2022-12-05T13:05:28.761Z,9.30
2022-12-05T13:08:01.255Z,8.67
2022-12-05T13:10:34.933Z,9.27
2022-12-05T13:13:06.243Z,8.23
2022-12-05T13:15:37.241Z,7.13
2022-12-05T13:18:06.682Z,6.80
2022-12-05T13:20:36.177Z,7.53
2022-12-05T13:23:08.465Z,6.73
2022-12-05T13:25:40.044Z,8.43
2022-12-05T13:28:31.813Z,9.93
2022-12-05T13:31:03.785Z,10.07
2022-12-05T13:33:35.740Z,9.90
2022-12-05T13:36:27.520Z,12.07
2022-12-05T13:39:18.131Z,10.97
2022-12-05T13:42:05.426Z,13.57
2022-12-05T13:44:38.099Z,23.50
2022-12-05T13:47:08.339Z,17.43
2022-12-05T13:49:44.549Z,16.70
2022-12-05T13:52:15.845Z,14.63
2022-12-05T13:54:46.354Z,14.33
2022-12-05T13:57:49.190Z,13.77
2022-12-05T14:00:30.895Z,18.37
2022-12-05T14:03:05.140Z,14.10
2022-12-05T14:05:41.858Z,15.00
2022-12-05T14:08:46.732Z,12.13
2022-12-05T14:11:15.224Z,10.07
2022-12-05T14:13:45.286Z,10.90
2022-12-05T14:16:49.359Z,12.97
2022-12-05T14:19:46.517Z,12.80
2022-12-05T14:22:48.979Z,13.70
2022-12-05T14:25:58.929Z,14.73
2022-12-05T14:28:46.697Z,13.83
2022-12-05T14:31:29.287Z,15.23
2022-12-05T14:34:20.770Z,14.03
2022-12-05T14:36:58.110Z,16.37
2022-12-05T14:39:39.917Z,16.90
2022-12-05T14:42:22.824Z,17.07
2022-12-05T14:44:52.597Z,16.90
2022-12-05T14:47:24.438Z,17.40
2022-12-05T14:50:02.398Z,16.47
2022-12-05T14:52:34.073Z,22.17
2022-12-05T14:55:07.148Z,20.90
2022-12-05T14:57:48.189Z,20.83
2022-12-05T15:00:21.249Z,19.63
2022-12-05T15:02:51.976Z,23.80
2022-12-05T15:05:27.461Z,22.40
2022-12-05T15:07:56.653Z,21.83
2022-12-05T15:10:27.011Z,23.60
2022-12-05T15:12:57.915Z,20.87
2022-12-05T15:15:33.252Z,19.83
2022-12-05T15:18:05.657Z,18.93
2022-12-05T15:20:52.161Z,21.60
2022-12-05T15:23:40.240Z,18.52
2022-12-05T15:26:45.685Z,20.43
2022-12-05T15:29:09.569Z,19.53
2022-12-05T15:31:40.391Z,19.23
2022-12-05T15:34:15.124Z,22.17
2022-12-05T15:36:49.745Z,21.57
2022-12-05T15:39:23.835Z,22.10
2022-12-05T15:41:52.756Z,22.07
2022-12-05T15:44:27.102Z,20.97
2022-12-05T15:46:57.793Z,22.20
2022-12-05T15:49:27.584Z,21.17
2022-12-05T15:52:02.459Z,25.20
2022-12-05T15:54:33.587Z,22.97
2022-12-05T15:57:04.689Z,23.63
2022-12-05T15:59:37.355Z,23.33
2022-12-05T16:02:13.928Z,22.40
2022-12-05T16:04:54.305Z,21.77
2022-12-05T16:07:27.084Z,20.45
2022-12-05T16:09:58.198Z,21.00
2022-12-05T16:12:31.791Z,20.37
2022-12-05T16:15:04.555Z,21.73
2022-12-05T16:17:40.292Z,22.00
2022-12-05T16:20:25.296Z,20.50
2022-12-05T16:22:56.713Z,22.60
2022-12-05T16:25:27.475Z,21.73
2022-12-05T16:28:03.885Z,21.63
2022-12-05T16:30:33.230Z,22.33
2022-12-05T16:33:06.685Z,21.97
2022-12-05T16:35:37.592Z,21.07
2022-12-05T16:38:15.713Z,20.13
2022-12-05T16:40:54.122Z,18.83
2022-12-05T16:43:29.182Z,38.03
2022-12-05T16:45:59.772Z,31.67
2022-12-05T16:48:29.328Z,24.87
2022-12-05T16:51:19.488Z,21.30
2022-12-05T16:53:50.935Z,19.40
2022-12-05T16:56:22.010Z,19.87
2022-12-05T16:58:50.597Z,20.10
2022-12-05T17:01:21.643Z,19.77
2022-12-05T17:03:50.553Z,16.90
2022-12-05T17:06:21.219Z,18.27
2022-12-05T17:08:51.321Z,19.37
2022-12-05T17:11:22.314Z,18.53
2022-12-05T17:13:51.316Z,20.70
2022-12-05T17:16:20.687Z,19.93
2022-12-05T17:18:51.473Z,19.50
2022-12-05T17:21:21.323Z,18.50
2022-12-05T17:23:52.437Z,27.30
2022-12-05T17:26:22.566Z,30.03
2022-12-05T17:28:51.549Z,40.07
2022-12-05T17:31:21.282Z,25.70
2022-12-05T17:33:51.735Z,18.67
2022-12-05T17:36:21.303Z,20.87
2022-12-05T17:38:51.257Z,20.40
2022-12-05T17:41:21.687Z,15.33
2022-12-05T17:43:51.431Z,16.77
2022-12-05T17:46:21.339Z,18.43
2022-12-05T17:48:50.484Z,19.10
2022-12-05T17:51:21.318Z,17.73
2022-12-05T17:53:52.995Z,19.30
2022-12-05T17:56:22.258Z,16.43
2022-12-05T17:58:50.888Z,19.13
2022-12-05T18:01:21.084Z,18.47
2022-12-05T18:03:50.143Z,25.20
2022-12-05T18:06:18.706Z,25.57
2022-12-05T18:08:47.157Z,37.30
2022-12-05T18:11:17.289Z,30.50
2022-12-05T18:13:45.857Z,23.93
2022-12-05T18:16:14.720Z,21.13
2022-12-05T18:18:43.158Z,17.73
2022-12-05T18:21:13.229Z,16.23
2022-12-05T18:23:42.217Z,15.47
2022-12-05T18:26:11.693Z,29.77
2022-12-05T18:28:41.623Z,29.60
2022-12-05T18:31:15.800Z,20.70
2022-12-05T18:33:45.677Z,18.80
2022-12-05T18:36:19.452Z,26.43
2022-12-05T18:38:51.773Z,24.37
2022-12-05T18:41:20.692Z,24.90
2022-12-05T18:43:50.560Z,23.47
2022-12-05T18:46:20.106Z,20.90
2022-12-05T18:48:48.904Z,23.57
2022-12-05T18:51:19.679Z,35.27
2022-12-05T18:53:53.234Z,32.10
2022-12-05T18:56:27.916Z,28.50
2022-12-05T18:58:59.875Z,29.07
2022-12-05T19:01:33.031Z,23.33
2022-12-05T19:04:03.012Z,23.87
2022-12-05T19:06:36.038Z,19.57
2022-12-05T19:09:11.064Z,16.83
2022-12-05T19:11:47.121Z,15.48
2022-12-05T19:14:18.820Z,14.53
2022-12-05T19:16:49.300Z,13.60
2022-12-05T19:19:18.735Z,13.83
2022-12-05T19:21:49.598Z,13.70
2022-12-05T19:24:19.455Z,13.77
2022-12-05T19:26:48.782Z,12.30
2022-12-05T19:29:18.737Z,12.37
2022-12-05T19:31:49.263Z,12.70
2022-12-05T19:34:17.846Z,12.53
2022-12-05T19:36:47.280Z,12.17
2022-12-05T19:39:17.457Z,11.50
2022-12-05T19:41:46.165Z,11.50
2022-12-05T19:44:15.111Z,12.33
2022-12-05T19:46:45.279Z,10.20
2022-12-05T19:49:16.374Z,11.70
2022-12-05T19:51:45.213Z,11.30
2022-12-05T19:54:19.612Z,10.47
2022-12-05T19:56:48.342Z,10.97
2022-12-05T19:59:17.413Z,12.33
2022-12-05T20:01:47.489Z,11.03
2022-12-05T20:04:17.165Z,10.90
2022-12-05T20:06:47.125Z,10.03
2022-12-05T20:09:16.979Z,9.97
2022-12-05T20:11:53.928Z,8.70
2022-12-05T20:14:26.022Z,9.07
2022-12-05T20:16:56.357Z,9.23
2022-12-05T20:19:25.762Z,9.53
2022-12-05T20:21:55.453Z,9.73
2022-12-05T20:24:24.018Z,11.47
2022-12-05T20:26:53.150Z,10.27
2022-12-05T20:29:21.684Z,20.73
2022-12-05T20:31:56.551Z,17.67
2022-12-05T20:34:26.401Z,13.80
2022-12-05T20:36:54.901Z,16.07
2022-12-05T20:39:24.755Z,29.57
2022-12-05T20:41:53.381Z,24.70
2022-12-05T20:44:22.038Z,16.63
2022-12-05T20:46:50.776Z,13.87
2022-12-05T20:49:19.217Z,18.87
2022-12-05T20:51:49.423Z,38.77
2022-12-05T20:54:18.432Z,25.53
2022-12-05T20:56:46.929Z,18.83
2022-12-05T20:59:15.512Z,14.67
2022-12-05T21:01:44.136Z,11.30
2022-12-05T21:04:13.708Z,11.83
2022-12-05T21:06:43.718Z,10.50
2022-12-05T21:09:18.698Z,10.83
2022-12-05T21:11:47.428Z,11.73
2022-12-05T21:14:15.900Z,11.50
2022-12-05T21:16:44.479Z,13.53
2022-12-05T21:19:12.993Z,16.00
2022-12-05T21:21:41.506Z,13.70
2022-12-05T21:24:11.233Z,8.93
2022-12-05T21:26:41.362Z,7.73
2022-12-05T21:29:10.656Z,7.87
2022-12-05T21:31:40.520Z,7.13
2022-12-05T21:34:13.621Z,7.00
2022-12-05T21:36:42.309Z,7.23
2022-12-05T21:39:12.377Z,7.10
2022-12-05T21:41:42.208Z,7.07
2022-12-05T21:44:10.640Z,7.50
2022-12-05T21:46:39.292Z,6.97
2022-12-05T21:49:07.936Z,6.73
2022-12-05T21:51:36.410Z,6.50
2022-12-05T21:54:05.197Z,6.47
2022-12-05T21:56:33.807Z,6.83
2022-12-05T21:59:03.662Z,33.07
2022-12-05T22:01:32.950Z,17.93
2022-12-05T22:04:01.680Z,14.13
2022-12-05T22:06:33.354Z,10.13
2022-12-05T22:09:02.225Z,8.73
2022-12-05T22:11:31.230Z,6.87
2022-12-05T22:13:59.673Z,6.20
2022-12-05T22:16:33.181Z,5.17
2022-12-05T22:19:02.218Z,7.27
2022-12-05T22:21:30.855Z,19.63
2022-12-05T22:23:59.251Z,16.63
2022-12-05T22:26:28.440Z,10.37
2022-12-05T22:28:57.909Z,8.67
2022-12-05T22:31:26.740Z,6.00
2022-12-05T22:33:56.652Z,5.50
2022-12-05T22:36:25.294Z,5.47
2022-12-05T22:38:53.888Z,7.67
2022-12-05T22:41:24.208Z,5.30
2022-12-05T22:43:56.125Z,5.97
2022-12-05T22:46:24.910Z,5.93
2022-12-05T22:48:53.838Z,5.07
2022-12-05T22:51:24.546Z,4.23
2022-12-05T22:53:54.180Z,4.20
2022-12-05T22:56:23.959Z,3.10
2022-12-05T22:58:54.803Z,2.90
2022-12-05T23:01:24.805Z,2.50
2022-12-05T23:03:56.015Z,3.30
2022-12-05T23:06:26.497Z,2.00
2022-12-05T23:08:55.295Z,1.93
2022-12-05T23:11:24.945Z,1.70
2022-12-05T23:14:01.380Z,2.00
2022-12-05T23:16:32.669Z,2.90
2022-12-05T23:19:02.632Z,2.73
2022-12-05T23:21:34.400Z,2.13
2022-12-05T23:24:04.568Z,2.37
2022-12-05T23:26:34.914Z,2.50
2022-12-05T23:29:03.397Z,2.10
2022-12-05T23:31:31.943Z,2.03
2022-12-05T23:34:03.652Z,1.83
2022-12-05T23:36:34.784Z,3.60
2022-12-05T23:39:03.630Z,18.77
2022-12-05T23:41:32.252Z,16.20
2022-12-05T23:44:00.711Z,12.90
2022-12-05T23:46:29.793Z,8.40
2022-12-05T23:48:58.493Z,5.47
2022-12-05T23:51:28.581Z,4.17
2022-12-05T23:53:59.654Z,3.43
2022-12-05T23:56:29.677Z,4.03
2022-12-05T23:58:58.360Z,3.10
